Time;durP1;ratioP1;P1;durP2;ratioP2;P2;SDS_P1;SDS_P2;PMS_P1;PMS_P2;Temp;Humidity;BMP_temperature;BMP_pressure;BME280_temperature;BME280_humidity;BME280_pressure;Samples;Min_cycle;Max_cycle;Signal;HPM_P1;HPM_P2
2023/08/30 00:02:23;;;;;;;24.90;17.40;;;;;;;-141.97;70.79;47497.94;5030843;28;20178;-77
2023/08/30 00:04:49;;;;;;;22.10;17.37;;;;;;;-141.97;70.29;47499.84;5030856;28;20185;-76
2023/08/30 00:07:14;;;;;;;24.20;17.53;;;;;;;-141.97;69.88;47496.00;5030695;28;20249;-76
2023/08/30 00:09:40;;;;;;;25.40;17.70;;;;;;;-141.97;71.13;47503.69;5015987;28;20841;-77
2023/08/30 00:12:05;;;;;;;27.10;17.70;;;;;;;-141.97;70.85;47653.63;5047643;28;20258;-77
2023/08/30 00:14:32;;;;;;;24.70;17.43;;;;;;;-141.97;70.99;47496.00;5049926;28;20611;-77
2023/08/30 00:16:57;;;;;;;24.70;17.47;;;;;;;-141.97;70.43;47469.09;5035073;28;20791;-79
2023/08/30 00:19:23;;;;;;;21.90;16.87;;;;;;;-141.97;70.02;47490.25;5034551;28;20170;-77
2023/08/30 00:21:48;;;;;;;22.83;17.47;;;;;;;-141.97;70.06;47476.78;5033993;28;20253;-78
2023/08/30 00:24:14;;;;;;;22.87;16.93;;;;;;;-141.97;71.59;47482.56;5034222;28;20269;-76
2023/08/30 00:26:39;;;;;;;24.57;17.30;;;;;;;-141.97;72.29;47488.31;5034149;28;20166;-76
2023/08/30 00:29:05;;;;;;;22.90;17.40;;;;;;;-141.97;72.60;47503.69;5033847;28;20244;-76
2023/08/30 00:31:30;;;;;;;26.17;17.70;;;;;;;-141.97;73.35;47482.56;5033686;28;20252;-76
2023/08/30 00:33:56;;;;;;;22.70;16.33;;;;;;;-141.97;73.48;47409.53;5033849;28;20536;-76
2023/08/30 00:36:22;;;;;;;23.53;16.23;;;;;;;-141.97;73.36;47522.91;5034596;28;20201;-75
2023/08/30 00:38:47;;;;;;;23.80;17.03;;;;;;;-141.97;73.52;47488.31;5033133;28;20202;-76
2023/08/30 00:41:12;;;;;;;23.17;16.50;;;;;;;-141.97;73.15;47476.78;5034455;28;20464;-75
2023/08/30 00:43:39;;;;;;;22.57;16.77;;;;;;;-141.97;73.38;47457.56;5034076;28;20306;-77
2023/08/30 00:46:04;;;;;;;22.27;16.07;;;;;;;-141.97;73.88;47538.28;5032997;28;20166;-76
2023/08/30 00:48:30;;;;;;;23.67;17.23;;;;;;;-141.97;74.03;47494.09;5031852;28;20194;-77
2023/08/30 00:50:55;;;;;;;22.17;17.30;;;;;;;-141.97;73.86;47522.91;5034414;28;20201;-78
2023/08/30 00:53:21;;;;;;;23.27;16.67;;;;;;;-141.97;74.47;47497.94;5032919;28;20182;-77
2023/08/30 00:55:46;;;;;;;21.33;17.10;;;;;;;-141.97;74.88;47505.63;5032403;28;20173;-77
2023/08/30 00:58:12;;;;;;;22.70;16.73;;;;;;;-141.97;74.73;47484.47;5033481;28;20550;-77
2023/08/30 01:00:39;;;;;;;23.60;16.53;;;;;;;-141.97;74.36;47532.53;5033425;28;20185;-77
2023/08/30 01:03:06;;;;;;;21.40;16.70;;;;;;;-141.97;74.50;47484.47;5033184;28;20166;-76
2023/08/30 01:05:32;;;;;;;22.43;16.90;;;;;;;-141.97;74.98;47536.38;5031982;28;20205;-77
2023/08/30 01:07:57;;;;;;;23.13;16.53;;;;;;;-141.97;74.82;47492.16;5033819;28;20646;-77
2023/08/30 01:10:33;;;;;;;26.90;17.30;;;;;;;-141.97;74.86;47507.53;5026551;28;20348;-76
2023/08/30 01:13:06;;;;;;;23.13;17.40;;;;;;;-141.97;74.83;47513.31;5034426;28;20205;-76
2023/08/30 01:15:34;;;;;;;24.30;16.97;;;;;;;-141.97;74.40;47505.63;5039768;28;20188;-76
2023/08/30 01:18:04;;;;;;;24.20;16.77;;;;;;;-141.97;73.91;47515.22;5034916;28;20653;-78
2023/08/30 01:20:35;;;;;;;23.77;17.70;;;;;;;-141.97;73.26;47534.44;5035030;28;20606;-76
2023/08/30 01:23:22;;;;;;;25.30;17.47;;;;;;;-141.97;72.83;47519.06;5038858;28;20162;-77
2023/08/30 01:25:55;;;;;;;24.07;17.13;;;;;;;-141.97;72.59;47532.53;5038793;28;20294;-78
2023/08/30 01:28:26;;;;;;;24.10;17.60;;;;;;;-141.97;72.26;47517.16;5035267;28;20162;-79
2023/08/30 01:30:54;;;;;;;26.50;18.47;;;;;;;-141.97;72.09;47519.06;5034696;28;20553;-78
2023/08/30 01:33:20;;;;;;;28.00;16.97;;;;;;;-141.97;71.38;47465.25;5034871;28;20169;-77
2023/08/30 01:35:46;;;;;;;24.53;17.80;;;;;;;-141.97;71.27;47496.00;5034231;28;20559;-77
2023/08/30 01:38:14;;;;;;;21.90;17.00;;;;;;;-141.97;71.53;47517.16;5034788;28;20172;-77
2023/08/30 01:40:42;;;;;;;24.17;16.70;;;;;;;-141.97;71.34;47680.53;5034421;28;20199;-76
2023/08/30 01:43:08;;;;;;;23.23;17.23;;;;;;;-141.97;71.21;47503.69;5031293;28;20626;-76
2023/08/30 01:45:38;;;;;;;22.13;16.40;;;;;;;-141.97;71.60;47532.53;5036098;28;20195;-77
2023/08/30 01:48:05;;;;;;;21.73;16.87;;;;;;;-141.97;71.40;47730.50;5049055;28;20158;-76
2023/08/30 01:50:32;;;;;;;22.10;16.70;;;;;;;-141.97;71.59;47438.34;5049624;28;20237;-77
2023/08/30 01:52:58;;;;;;;20.93;16.53;;;;;;;-141.97;71.00;47496.00;5032066;28;20174;-77
2023/08/30 01:55:26;;;;;;;23.97;17.90;;;;;;;-141.97;70.94;47482.56;5032230;28;20227;-77
2023/08/30 01:57:51;;;;;;;24.60;17.37;;;;;;;-141.97;71.03;47505.63;5032567;28;20684;-77
2023/08/30 02:00:17;;;;;;;22.27;16.67;;;;;;;-141.97;70.78;47499.84;5030962;28;20630;-77
2023/08/30 02:02:42;;;;;;;23.37;17.33;;;;;;;-141.97;70.70;47503.69;5032762;28;20300;-76
2023/08/30 02:05:09;;;;;;;25.03;17.10;;;;;;;-141.97;71.43;47494.09;5032646;28;20572;-76
2023/08/30 02:07:53;;;;;;;22.90;17.60;;;;;;;-141.97;71.86;47494.09;5033098;28;20161;-76
2023/08/30 02:10:27;;;;;;;26.37;19.30;;;;;;;-141.97;71.48;47497.94;5020349;28;20287;-75
2023/08/30 02:12:55;;;;;;;53.73;37.27;;;;;;;-141.97;71.60;47480.63;5027829;28;20696;-74
2023/08/30 02:15:24;;;;;;;89.93;63.00;;;;;;;-141.97;71.43;47515.22;5051834;28;20526;-75
2023/08/30 02:17:50;;;;;;;30.93;21.80;;;;;;;-141.97;71.66;47549.84;5043458;28;20173;-76
2023/08/30 02:20:16;;;;;;;37.17;27.03;;;;;;;-141.97;71.40;47511.38;5030762;28;20200;-76
2023/08/30 02:22:41;;;;;;;29.63;21.00;;;;;;;-141.97;71.21;47553.69;5029845;28;20256;-76
2023/08/30 02:25:07;;;;;;;25.97;19.57;;;;;;;-141.97;71.13;47613.25;5032117;28;20301;-77
2023/08/30 02:27:34;;;;;;;24.70;18.70;;;;;;;-141.97;70.91;47605.56;5032238;28;20350;-77
2023/08/30 02:30:00;;;;;;;25.63;17.93;;;;;;;-141.97;70.78;47492.16;5031838;28;20698;-77
2023/08/30 02:32:25;;;;;;;24.37;17.20;;;;;;;-141.97;70.57;47484.47;5031391;28;20185;-76
2023/08/30 02:34:52;;;;;;;27.47;18.17;;;;;;;-141.97;71.24;47526.75;5031786;28;20235;-76
2023/08/30 02:37:18;;;;;;;23.87;16.90;;;;;;;-141.97;71.83;47521.00;5043021;28;20185;-77
2023/08/30 02:39:44;;;;;;;20.43;16.10;;;;;;;-141.97;71.56;47509.47;5051975;28;20166;-76
2023/08/30 02:42:09;;;;;;;23.70;17.00;;;;;;;-141.97;71.82;47519.06;5051846;28;20221;-76
2023/08/30 02:44:35;;;;;;;22.50;16.73;;;;;;;-141.97;72.09;47507.53;5050635;28;20196;-76
2023/08/30 02:47:00;;;;;;;21.90;15.67;;;;;;;-141.97;71.66;47549.84;5038755;28;20562;-76
2023/08/30 02:49:26;;;;;;;21.83;16.43;;;;;;;-141.97;72.05;47501.78;5031157;28;20238;-77
2023/08/30 02:51:51;;;;;;;21.33;16.10;;;;;;;-141.97;72.72;47478.72;5031935;28;20543;-78
2023/08/30 02:54:16;;;;;;;24.37;15.60;;;;;;;-141.97;73.22;47551.75;5045216;28;20177;-77
2023/08/30 02:56:45;;;;;;;21.33;16.77;;;;;;;-141.97;73.01;47524.84;5030025;28;20181;-77
2023/08/30 02:59:11;;;;;;;23.00;16.60;;;;;;;-141.97;73.28;47522.91;5029579;28;20178;-77
2023/08/30 03:01:37;;;;;;;22.87;17.33;;;;;;;-141.97;73.37;47467.19;5031201;28;20154;-77
2023/08/30 03:04:07;;;;;;;22.37;16.50;;;;;;;-141.97;73.56;47642.09;5014588;28;20691;-77
2023/08/30 03:06:34;;;;;;;24.40;16.80;;;;;;;-141.97;73.22;47536.38;5030362;28;20327;-77
2023/08/30 03:08:59;;;;;;;22.87;17.50;;;;;;;-141.97;73.28;47490.25;5030093;28;20178;-76
2023/08/30 03:11:24;;;;;;;24.37;17.00;;;;;;;-141.97;72.78;47505.63;5022648;28;20264;-76
2023/08/30 03:13:50;;;;;;;27.80;16.47;;;;;;;-141.97;72.09;47619.03;5051228;28;20181;-76
2023/08/30 03:16:17;;;;;;;23.37;17.17;;;;;;;-141.97;72.38;47553.69;5051333;28;20232;-76
2023/08/30 03:18:43;;;;;;;24.00;16.07;;;;;;;-141.97;72.19;47530.59;5051736;28;20169;-76
2023/08/30 03:21:09;;;;;;;26.50;16.17;;;;;;;-141.97;72.17;47492.16;5040566;28;20186;-76
2023/08/30 03:23:36;;;;;;;23.17;15.70;;;;;;;-141.97;71.38;47699.75;5030290;28;20189;-75
2023/08/30 03:26:12;;;;;;;19.87;15.23;;;;;;;-141.97;71.32;47488.31;5028864;28;20183;-76
2023/08/30 03:28:38;;;;;;;22.33;15.90;;;;;;;-141.97;70.90;47453.72;5030625;28;20234;-75
2023/08/30 03:31:23;;;;;;;23.53;15.20;;;;;;;-141.97;70.56;47482.56;5030688;28;20279;-75
2023/08/30 03:33:48;;;;;;;23.40;15.10;;;;;;;-141.97;70.53;47507.53;5023350;28;20628;-76
2023/08/30 03:36:18;;;;;;;21.90;14.60;;;;;;;-141.97;70.73;47511.38;5026083;28;20198;-76
2023/08/30 03:38:44;;;;;;;22.27;14.90;;;;;;;-141.97;70.27;47524.84;5021424;28;20162;-75
2023/08/30 03:41:10;;;;;;;21.13;15.20;;;;;;;-141.97;70.96;47505.63;5023489;28;20180;-76
2023/08/30 03:43:36;;;;;;;19.07;15.23;;;;;;;-141.97;70.38;47528.69;5020570;28;20225;-76
2023/08/30 03:46:02;;;;;;;22.00;14.67;;;;;;;-141.97;70.30;47526.75;5021549;28;20181;-76
2023/08/30 03:48:29;;;;;;;22.70;15.50;;;;;;;-141.97;69.32;47526.75;5022312;28;20167;-76
2023/08/30 03:50:55;;;;;;;19.97;14.70;;;;;;;-141.97;69.62;47461.41;5025399;28;20185;-75
2023/08/30 03:53:20;;;;;;;20.23;14.77;;;;;;;-141.97;70.07;47497.94;5021467;28;20175;-75
2023/08/30 03:55:46;;;;;;;21.93;15.00;;;;;;;-141.97;69.42;47507.53;5023373;28;20192;-76
2023/08/30 03:58:11;;;;;;;22.47;15.00;;;;;;;-141.97;68.56;47515.22;5022210;28;20245;-77
2023/08/30 04:00:38;;;;;;;19.63;15.20;;;;;;;-141.97;68.50;47538.28;5023145;28;20624;-77
2023/08/30 04:03:08;;;;;;;21.93;15.07;;;;;;;-141.97;68.30;47515.22;5022565;28;20170;-77
2023/08/30 04:05:34;;;;;;;22.87;15.37;;;;;;;-141.97;69.35;47515.22;5021394;28;20187;-77
2023/08/30 04:08:02;;;;;;;21.33;15.57;;;;;;;-141.97;69.96;47496.00;5022535;28;20935;-77
2023/08/30 04:10:27;;;;;;;23.87;15.33;;;;;;;-141.97;70.51;47617.09;5013006;28;20786;-77
2023/08/30 04:12:52;;;;;;;24.83;16.00;;;;;;;-141.97;70.20;47490.25;5022480;28;20769;-77
2023/08/30 04:15:18;;;;;;;20.47;15.33;;;;;;;-141.97;70.13;47538.28;5027837;28;20179;-77
2023/08/30 04:17:43;;;;;;;20.40;15.03;;;;;;;-141.97;69.13;47546.00;5020267;28;20171;-76
2023/08/30 04:20:10;;;;;;;27.70;16.07;;;;;;;-141.97;68.84;47534.44;5025338;28;20579;-75
2023/08/30 04:22:36;;;;;;;20.80;15.60;;;;;;;-141.97;68.81;47524.84;5031848;28;20158;-77
2023/08/30 04:25:01;;;;;;;42.10;31.37;;;;;;;-141.97;67.90;47546.00;5026525;28;20320;-77
2023/08/30 04:27:27;;;;;;;28.67;19.50;;;;;;;-141.97;68.19;47507.53;5030370;28;20186;-77
2023/08/30 04:29:52;;;;;;;22.80;16.63;;;;;;;-141.97;67.70;47544.06;5030856;28;20552;-77
2023/08/30 04:32:18;;;;;;;32.30;20.87;;;;;;;-141.97;68.28;47549.84;5030833;28;20599;-76
2023/08/30 04:34:43;;;;;;;22.90;15.23;;;;;;;-141.97;68.02;47565.22;5030233;28;20181;-77
2023/08/30 04:37:08;;;;;;;22.73;13.87;;;;;;;-141.97;67.26;47515.22;5031028;28;20200;-77
2023/08/30 04:39:34;;;;;;;21.30;14.73;;;;;;;-141.97;66.40;47455.66;5030222;28;20258;-77
2023/08/30 04:42:00;;;;;;;22.60;14.50;;;;;;;-141.97;66.06;47511.38;5028703;28;20263;-76
2023/08/30 04:44:27;;;;;;;22.07;14.73;;;;;;;-141.97;65.46;47503.69;5029997;28;20197;-77
2023/08/30 04:46:53;;;;;;;22.10;14.63;;;;;;;-141.97;65.98;47515.22;5028299;28;20182;-76
2023/08/30 04:49:19;;;;;;;26.77;14.73;;;;;;;-141.97;66.01;47492.16;5030183;28;20178;-77
2023/08/30 04:51:44;;;;;;;26.00;15.20;;;;;;;-141.97;65.28;47519.06;5030372;28;20198;-78
2023/08/30 04:54:09;;;;;;;24.47;15.00;;;;;;;-141.97;64.24;47499.84;5030593;28;20173;-77
2023/08/30 04:56:35;;;;;;;24.67;14.77;;;;;;;-141.97;63.88;47540.22;5024201;28;20262;-77
2023/08/30 04:59:03;;;;;;;21.93;15.00;;;;;;;-141.97;63.76;47503.69;5029477;28;20178;-77
2023/08/30 05:01:29;;;;;;;21.40;14.40;;;;;;;-141.97;63.10;47530.59;5029995;28;20159;-77
2023/08/30 05:03:55;;;;;;;22.00;14.13;;;;;;;-141.97;63.13;47519.06;5032686;28;20270;-77
2023/08/30 05:06:20;;;;;;;21.93;14.63;;;;;;;-141.97;62.30;47511.38;5031702;28;20571;-76
2023/08/30 05:08:45;;;;;;;20.07;14.13;;;;;;;-141.97;63.10;47492.16;5032621;28;20178;-77
2023/08/30 05:11:11;;;;;;;20.67;14.67;;;;;;;-141.97;64.46;47536.38;5033217;28;20335;-77
2023/08/30 05:13:36;;;;;;;22.43;14.90;;;;;;;-141.97;65.84;47488.31;5020835;28;20613;-77
2023/08/30 05:16:03;;;;;;;23.33;15.50;;;;;;;-141.97;66.54;47488.31;5033446;28;20170;-78
2023/08/30 05:18:28;;;;;;;21.60;15.27;;;;;;;-141.97;65.90;47511.38;5031331;28;20571;-78
2023/08/30 05:20:54;;;;;;;21.13;15.70;;;;;;;-141.97;66.49;47515.22;5034546;28;20217;-76
2023/08/30 05:23:19;;;;;;;21.90;14.93;;;;;;;-141.97;66.24;47488.31;5034418;28;20253;-76
2023/08/30 05:25:45;;;;;;;21.40;14.77;;;;;;;-141.97;67.14;47496.00;5033226;28;20200;-77
2023/08/30 05:28:10;;;;;;;22.67;15.63;;;;;;;-141.97;66.37;47538.28;5033223;28;20225;-77
2023/08/30 05:30:35;;;;;;;21.93;14.67;;;;;;;-141.97;65.75;47534.44;5032884;28;20189;-77
2023/08/30 05:33:02;;;;;;;24.97;14.77;;;;;;;-141.97;65.97;47513.31;5035443;28;20611;-78
2023/08/30 05:35:27;;;;;;;22.60;15.10;;;;;;;-141.97;65.82;47530.59;5055675;28;20185;-80
2023/08/30 05:37:53;;;;;;;23.03;14.87;;;;;;;-141.97;65.00;47503.69;5044884;28;20178;-76
2023/08/30 05:40:18;;;;;;;23.63;15.53;;;;;;;-141.97;64.30;47488.31;5031692;28;20174;-77
2023/08/30 05:42:45;;;;;;;29.00;15.83;;;;;;;-141.97;64.35;47526.75;5032640;28;20234;-77
2023/08/30 05:45:10;;;;;;;23.43;15.43;;;;;;;-141.97;63.78;47530.59;5032707;28;20170;-77
2023/08/30 05:47:36;;;;;;;21.30;14.67;;;;;;;-141.97;64.39;47515.22;5032516;28;20253;-77
2023/08/30 05:50:02;;;;;;;21.67;15.37;;;;;;;-141.97;64.14;47515.22;5032646;28;20639;-77
2023/08/30 05:52:27;;;;;;;19.50;15.03;;;;;;;-141.97;64.14;47507.53;5032372;28;20224;-77
2023/08/30 05:54:52;;;;;;;20.37;14.87;;;;;;;-141.97;64.98;47490.25;5032448;28;20178;-78
2023/08/30 05:57:18;;;;;;;19.33;14.70;;;;;;;-141.97;65.15;47534.44;5032211;28;20177;-78
2023/08/30 05:59:44;;;;;;;23.90;15.07;;;;;;;-141.97;64.29;47496.00;5032115;28;20178;-77
2023/08/30 06:02:10;;;;;;;25.60;16.80;;;;;;;-141.97;64.54;47492.16;5031974;28;20151;-78
2023/08/30 06:04:35;;;;;;;21.07;15.23;;;;;;;-141.97;65.13;47544.06;5031579;28;20611;-79
2023/08/30 06:07:01;;;;;;;20.67;15.47;;;;;;;-141.97;64.84;47526.75;5031740;28;20177;-78
2023/08/30 06:09:26;;;;;;;21.63;15.07;;;;;;;-141.97;65.00;47532.53;5031129;28;20236;-77
2023/08/30 06:11:52;;;;;;;19.90;15.70;;;;;;;-141.97;64.60;47551.75;5031433;28;20198;-77
2023/08/30 06:14:17;;;;;;;21.37;16.30;;;;;;;-141.97;65.63;47480.63;5031056;28;20264;-78
2023/08/30 06:16:44;;;;;;;23.03;16.07;;;;;;;-141.97;65.40;47490.25;5031523;28;20162;-78
2023/08/30 06:19:12;;;;;;;23.63;16.07;;;;;;;-141.97;65.73;47580.59;5031085;28;20166;-78
2023/08/30 06:21:38;;;;;;;19.70;15.23;;;;;;;-141.97;65.58;47515.22;5031302;28;20669;-77
2023/08/30 06:24:03;;;;;;;24.00;16.30;;;;;;;-141.97;64.65;47507.53;5031338;28;20249;-78
2023/08/30 06:26:29;;;;;;;25.23;16.30;;;;;;;-141.97;63.63;47474.88;5031310;28;20162;-78
2023/08/30 06:28:54;;;;;;;22.77;16.00;;;;;;;-141.97;62.90;47522.91;5030914;28;20280;-79
2023/08/30 06:31:20;;;;;;;23.10;15.80;;;;;;;-141.97;61.29;47503.69;5031345;28;20189;-79
2023/08/30 06:33:45;;;;;;;21.50;15.57;;;;;;;-141.97;60.98;47546.00;5031509;28;20212;-81
2023/08/30 06:36:11;;;;;;;21.83;15.60;;;;;;;-141.97;60.07;47488.31;5031273;28;20240;-78
2023/08/30 06:38:37;;;;;;;21.70;15.97;;;;;;;-141.97;58.99;47471.03;5030539;28;20193;-76
2023/08/30 06:41:02;;;;;;;18.60;14.67;;;;;;;-141.97;58.78;47507.53;5033366;28;20154;-77
2023/08/30 06:43:28;;;;;;;20.07;14.60;;;;;;;-141.97;57.85;47542.16;5032169;28;20225;-77
2023/08/30 06:45:53;;;;;;;19.60;14.63;;;;;;;-141.97;57.65;47507.53;5032466;28;20649;-78
2023/08/30 06:48:18;;;;;;;21.87;15.43;;;;;;;-141.97;57.08;47476.78;5032088;28;20173;-78
2023/08/30 06:50:44;;;;;;;25.27;15.60;;;;;;;-141.97;56.83;47449.88;5031902;28;20563;-77
2023/08/30 06:53:09;;;;;;;19.83;14.83;;;;;;;-141.97;56.48;47492.16;5030901;28;20180;-78
2023/08/30 06:55:36;;;;;;;20.13;14.47;;;;;;;-141.97;55.68;47469.09;5030802;28;20602;-77
2023/08/30 06:58:02;;;;;;;20.40;14.87;;;;;;;-141.97;55.32;47472.94;5030828;28;20166;-78
2023/08/30 07:00:28;;;;;;;18.53;14.50;;;;;;;-141.97;55.29;47478.72;5030814;28;20158;-78
2023/08/30 07:02:53;;;;;;;19.57;15.30;;;;;;;-141.97;54.92;47488.31;5030657;28;20254;-77
2023/08/30 07:05:19;;;;;;;20.48;15.02;;;;;;;-141.97;55.15;47482.56;5030788;28;20162;-77
2023/08/30 07:07:44;;;;;;;20.75;15.57;;;;;;;-141.97;56.00;47465.25;5029134;28;20173;-77
2023/08/30 07:10:10;;;;;;;21.02;15.32;;;;;;;-141.97;55.41;47472.94;5029106;28;20630;-76
2023/08/30 07:12:35;;;;;;;23.23;15.27;;;;;;;-141.97;54.28;47444.13;5020828;28;20244;-76
2023/08/30 07:15:03;;;;;;;20.73;15.15;;;;;;;-141.97;53.46;47457.56;5030371;28;20597;-78
2023/08/30 07:17:29;;;;;;;27.88;15.10;;;;;;;-141.97;52.81;47442.19;5030382;28;20586;-77
2023/08/30 07:19:54;;;;;;;21.15;15.30;;;;;;;-141.97;51.71;47348.03;5029947;28;20172;-76
2023/08/30 07:22:19;;;;;;;17.17;14.10;;;;;;;-141.97;51.04;47442.19;5029933;28;20172;-77
2023/08/30 07:24:45;;;;;;;18.05;14.00;;;;;;;-141.97;51.91;47438.34;5029694;28;20269;-77
2023/08/30 07:27:12;;;;;;;18.00;13.60;;;;;;;-141.97;51.50;47440.28;5029638;28;20172;-76
2023/08/30 07:29:39;;;;;;;19.23;14.35;;;;;;;-141.97;52.02;47455.66;5029726;28;20173;-77
2023/08/30 07:32:05;;;;;;;20.38;14.27;;;;;;;-141.97;51.26;47457.56;5029793;28;20213;-77
2023/08/30 07:34:31;;;;;;;21.92;14.63;;;;;;;-141.97;50.90;47449.88;5030326;28;20184;-78
2023/08/30 07:36:56;;;;;;;17.20;14.13;;;;;;;-141.97;50.65;47382.63;5029854;28;20183;-77
2023/08/30 07:39:22;;;;;;;21.10;14.50;;;;;;;-141.97;50.95;47461.41;5029717;28;20179;-77
2023/08/30 07:41:47;;;;;;;19.52;14.23;;;;;;;-141.97;49.13;47451.81;5029183;28;20720;-77
2023/08/30 07:44:12;;;;;;;22.88;14.63;;;;;;;-141.97;48.58;47409.53;5029910;28;20186;-77
2023/08/30 07:46:38;;;;;;;18.98;15.23;;;;;;;-141.97;48.70;47426.81;5029367;28;20633;-76
2023/08/30 07:49:03;;;;;;;19.77;14.02;;;;;;;-141.97;49.41;47438.34;5029194;28;20189;-77
2023/08/30 07:51:28;;;;;;;19.88;13.52;;;;;;;-141.97;48.27;47440.28;5029573;28;20551;-77
2023/08/30 07:53:54;;;;;;;15.95;13.95;;;;;;;-141.97;48.82;47438.34;5029710;28;20192;-77
2023/08/30 07:56:19;;;;;;;19.88;14.50;;;;;;;-141.97;49.65;47432.59;5029884;28;20225;-77
2023/08/30 07:58:45;;;;;;;20.17;14.52;;;;;;;-141.97;48.49;47388.38;5029370;28;20239;-78
2023/08/30 08:01:10;;;;;;;15.98;13.75;;;;;;;-141.97;48.90;47419.13;5028887;28;20174;-78
2023/08/30 08:03:35;;;;;;;17.95;14.02;;;;;;;-141.97;48.54;47415.28;5029352;28;20220;-78
2023/08/30 08:06:01;;;;;;;18.98;14.35;;;;;;;-141.97;47.92;47349.94;5029631;28;20221;-78
2023/08/30 08:08:26;;;;;;;19.77;15.27;;;;;;;-141.97;47.26;47430.66;5029324;28;20520;-78
2023/08/30 08:10:52;;;;;;;21.17;14.88;;;;;;;-141.97;46.35;47421.06;5020510;28;20198;-77
2023/08/30 08:13:17;;;;;;;23.80;16.02;;;;;;;-141.97;47.66;47409.53;5029669;28;20223;-79
2023/08/30 08:15:44;;;;;;;21.70;15.77;;;;;;;-141.97;45.67;47390.31;5029652;28;20656;-78
2023/08/30 08:18:09;;;;;;;17.30;13.70;;;;;;;-141.97;45.17;47419.13;5029640;28;20165;-78
2023/08/30 08:20:36;;;;;;;19.23;14.00;;;;;;;-141.97;45.38;47411.44;5029358;28;20295;-78
2023/08/30 08:23:02;;;;;;;18.90;13.63;;;;;;;-141.97;46.12;47353.78;5029981;28;20466;-79
2023/08/30 08:25:27;;;;;;;17.20;14.38;;;;;;;-141.97;46.16;47411.44;5029649;28;20172;-78
2023/08/30 08:27:53;;;;;;;16.50;13.45;;;;;;;-141.97;45.20;47428.75;5029866;28;20177;-78
2023/08/30 08:30:20;;;;;;;18.50;13.05;;;;;;;-141.97;44.02;47403.75;5029296;28;20170;-77
2023/08/30 08:32:47;;;;;;;19.55;14.77;;;;;;;-141.97;43.70;47361.47;5029309;28;20660;-78
2023/08/30 08:35:13;;;;;;;19.17;14.02;;;;;;;-141.97;42.71;47376.84;5028082;28;20185;-78
2023/08/30 08:37:38;;;;;;;16.08;13.82;;;;;;;-141.97;42.96;47365.31;5032200;28;20163;-78
2023/08/30 08:40:08;;;;;;;17.48;14.15;;;;;;;-141.97;42.87;47355.72;5032995;28;20532;-78
2023/08/30 08:42:34;;;;;;;16.30;12.77;;;;;;;-141.97;42.21;47365.31;5033248;28;20254;-78
2023/08/30 08:45:01;;;;;;;15.30;12.35;;;;;;;-141.97;41.68;47378.78;5033288;28;20748;-78
2023/08/30 08:47:30;;;;;;;19.15;12.98;;;;;;;-141.97;42.02;47359.56;5033183;28;20161;-77
2023/08/30 08:49:56;;;;;;;15.18;12.23;;;;;;;-141.97;42.47;47373.00;5033083;28;20694;-79
2023/08/30 08:52:23;;;;;;;18.80;12.77;;;;;;;-141.97;42.61;47365.31;5033415;28;20565;-78
2023/08/30 08:54:49;;;;;;;15.35;12.45;;;;;;;-141.97;42.45;47407.59;5033047;28;20231;-78
2023/08/30 08:57:14;;;;;;;18.42;12.20;;;;;;;-141.97;41.82;47388.38;5033012;28;20177;-79
2023/08/30 08:59:39;;;;;;;18.15;12.40;;;;;;;-141.97;41.46;47351.88;5032505;28;20167;-78
2023/08/30 09:02:06;;;;;;;17.70;12.80;;;;;;;-141.97;40.84;47351.88;5032768;28;20559;-78
2023/08/30 09:04:31;;;;;;;16.95;13.02;;;;;;;-141.97;40.09;47338.41;5033094;28;20687;-78
2023/08/30 09:07:00;;;;;;;16.63;12.77;;;;;;;-141.97;40.32;47365.31;5033253;28;20198;-79
2023/08/30 09:09:25;;;;;;;18.95;14.15;;;;;;;-141.97;40.11;47349.94;5033044;28;20192;-79
2023/08/30 09:11:51;;;;;;;15.68;13.85;;;;;;;-141.97;40.05;47338.41;5022431;28;20240;-78
2023/08/30 09:14:16;;;;;;;15.65;13.70;;;;;;;-141.97;39.15;47342.25;5032653;28;20227;-80
2023/08/30 09:16:42;;;;;;;17.13;12.63;;;;;;;-141.97;39.28;47342.25;5032785;28;20181;-78
2023/08/30 09:19:10;;;;;;;16.27;12.88;;;;;;;-141.97;39.72;47384.53;5032622;28;20169;-78
2023/08/30 09:21:35;;;;;;;18.00;13.15;;;;;;;-141.97;40.63;47328.81;5034511;28;20166;-78
2023/08/30 09:24:03;;;;;;;16.38;12.80;;;;;;;-141.97;39.50;47346.09;5036956;28;20171;-79
2023/08/30 09:26:31;;;;;;;13.75;11.75;;;;;;;-141.97;39.40;47357.63;5034429;28;20255;-79
2023/08/30 09:29:05;;;;;;;15.52;12.50;;;;;;;-141.97;40.53;47428.75;5033143;28;20627;-78
2023/08/30 09:31:55;;;;;;;14.88;12.60;;;;;;;-141.97;39.03;47374.94;5033152;28;20319;-79
2023/08/30 09:34:25;;;;;;;16.02;12.27;;;;;;;-141.97;39.89;47369.16;5033124;28;20891;-79
2023/08/30 09:36:50;;;;;;;14.63;12.50;;;;;;;-141.97;40.29;47369.16;5033558;28;20579;-79
2023/08/30 09:39:15;;;;;;;19.05;12.48;;;;;;;-141.97;39.64;47324.97;5033091;28;20744;-78
2023/08/30 09:41:43;;;;;;;17.75;12.48;;;;;;;-141.97;38.74;47361.47;5032389;28;20228;-78
2023/08/30 09:44:16;;;;;;;13.90;12.30;;;;;;;-141.97;38.20;47346.09;5032487;28;20168;-78
2023/08/30 09:46:43;;;;;;;14.63;11.95;;;;;;;-141.97;37.25;47303.81;5032809;28;20162;-77
2023/08/30 09:49:09;;;;;;;13.95;11.65;;;;;;;-141.97;36.85;47430.66;5031809;28;20158;-78
2023/08/30 09:51:35;;;;;;;13.30;11.88;;;;;;;-141.97;36.79;47346.09;5032045;28;20289;-79
2023/08/30 09:54:04;;;;;;;16.50;12.80;;;;;;;-141.97;36.39;47296.13;5032832;28;20188;-78
2023/08/30 09:56:32;;;;;;;14.27;12.65;;;;;;;-141.97;36.42;47309.59;5032191;28;20737;-77
2023/08/30 09:58:59;;;;;;;16.00;13.18;;;;;;;-141.97;37.26;47303.81;5032085;28;20170;-78
2023/08/30 10:01:27;;;;;;;16.15;13.32;;;;;;;-141.97;37.35;47313.44;5030454;28;20176;-79
2023/08/30 10:03:54;;;;;;;16.10;12.80;;;;;;;-141.97;36.62;47321.13;5031677;28;20169;-78
2023/08/30 10:06:21;;;;;;;14.43;12.93;;;;;;;-141.97;36.37;47321.13;5031857;28;20603;-79
2023/08/30 10:08:48;;;;;;;15.45;12.88;;;;;;;-141.97;36.85;47307.66;5032039;28;20162;-79
2023/08/30 10:11:16;;;;;;;16.88;12.68;;;;;;;-141.97;37.18;47338.41;5037188;28;20198;-79
2023/08/30 10:13:43;;;;;;;16.02;13.00;;;;;;;-141.97;37.00;47326.88;5032400;28;20200;-80
2023/08/30 10:16:15;;;;;;;14.73;13.20;;;;;;;-141.97;37.69;47334.56;5031523;28;20249;-79
2023/08/30 10:18:43;;;;;;;21.88;12.70;;;;;;;-141.97;36.90;47338.41;5031385;28;20177;-79
2023/08/30 10:21:12;;;;;;;19.13;12.85;;;;;;;-141.97;36.76;47313.44;5031517;28;20171;-81
2023/08/30 10:23:39;;;;;;;15.98;12.00;;;;;;;-141.97;36.53;47290.38;5031205;28;20204;-79
2023/08/30 10:26:06;;;;;;;15.30;12.68;;;;;;;-141.97;36.16;47305.75;5038990;28;20339;-78
2023/08/30 10:28:34;;;;;;;15.45;12.32;;;;;;;-141.97;35.89;47296.13;5051619;28;20189;-79
2023/08/30 10:30:59;;;;;;;14.27;11.90;;;;;;;-141.97;35.46;47292.28;5049641;28;20181;-79
2023/08/30 10:33:25;;;;;;;16.77;11.70;;;;;;;-141.97;35.37;47275.00;5032732;28;20182;-78
2023/08/30 10:35:51;;;;;;;12.93;11.63;;;;;;;-141.97;35.12;47278.84;5032634;28;20166;-81
2023/08/30 10:38:30;;;;;;;15.07;12.55;;;;;;;-141.97;35.31;47292.28;5030626;28;20181;-79
2023/08/30 10:41:05;;;;;;;15.50;12.18;;;;;;;-141.97;35.25;47303.81;5031680;28;20252;-78
2023/08/30 10:43:34;;;;;;;16.60;12.65;;;;;;;-141.97;35.05;47336.50;5030898;28;20744;-79
2023/08/30 10:46:11;;;;;;;17.15;13.25;;;;;;;-141.97;35.69;47280.75;5031019;28;20170;-79
2023/08/30 10:48:37;;;;;;;18.02;13.32;;;;;;;-141.97;35.33;47330.72;5031185;28;20629;-81
2023/08/30 10:51:07;;;;;;;14.80;13.30;;;;;;;-141.97;36.04;47315.34;5030719;28;20256;-80
2023/08/30 10:53:32;;;;;;;15.52;13.40;;;;;;;-141.97;35.74;47276.91;5030697;28;20256;-79
2023/08/30 10:56:16;;;;;;;16.92;13.88;;;;;;;-141.97;35.55;47255.78;5030791;28;20241;-79
2023/08/30 10:58:43;;;;;;;19.45;13.48;;;;;;;-141.97;35.74;47242.31;5030914;28;20204;-79
2023/08/30 11:01:13;;;;;;;15.20;13.50;;;;;;;-141.97;35.04;47282.69;5029849;28;20169;-81